GW2045 Weather Reports


time (UTC)temp
F
wind
direction
speed
knots
gust
knots
rain 1hr
in
rain 24hr
in
rain mn
in
humidity
%
barometer
mb
20260505190110 73 293 1.7 7.8 0.00 0.00 0.00 37 1008.9
20260505185607 72 341 1.7 7.8 0.00 0.00 0.00 45 1008.9
20260505185103 71 313 2.6 7.8 0.00 0.00 0.00 37 1008.9
20260505184600 72 316 1.7 6.1 0.00 0.00 0.00 35 1009.4
20260505184057 72 317 0.9 5.2 0.00 0.00 0.00 37 1009.4
20260505183553 72 336 1.7 5.2 0.00 0.00 0.00 37 1009.4
20260505183051 72 151 1.7 4.3 0.00 0.00 0.00 42 1009.4
20260505182547 72 314 1.7 7.0 0.00 0.00 0.00 37 1009.4
20260505182044 71 333 1.7 7.0 0.00 0.00 0.00 46 1009.4
20260505181541 71 314 2.6 5.2 0.00 0.00 0.00 37 1009.4
20260505181038 71 350 1.7 5.2 0.00 0.00 0.00 37 1009.4
20260505180533 70 335 0.9 3.5 0.00 0.00 0.00 40 1009.4
20260505180032 70 23 1.7 7.0 0.00 0.00 0.00 41 1009.4
20260505175526 70 337 0.9 7.0 0.00 0.00 0.00 40 1009.4
20260505175023 69 97 0.9 6.1 0.00 0.00 0.00 41 1009.7
20260505174520 68 89 0.9 6.1 0.00 0.00 0.00 42 1009.7
20260505174016 68 329 0.9 3.5 0.00 0.00 0.00 41 1009.4
20260505173513 68 133 1.7 5.2 0.00 0.00 0.00 39 1009.4
20260505173010 67 146 1.7 5.2 0.00 0.00 0.00 43 1009.7
20260505172508 66 170 1.7 7.0 0.00 0.00 0.00 40 1009.7
20260505172003 67 336 1.7 7.0 0.00 0.00 0.00 44 1009.7
20260505171459 66 267 0.9 6.1 0.00 0.00 0.00 47 1009.4
20260505170956 67 193 0.9 4.3 0.00 0.00 0.00 49 1009.4
20260505170453 69 245 0.9 4.3 0.00 0.00 0.00 45 1009.4
20260505165948 68 328 1.7 6.1 0.00 0.00 0.00 41 1009.4
20260505165444 67 198 2.6 6.1 0.00 0.00 0.00 38 1009.4
20260505164939 68 172 1.7 4.3 0.00 0.00 0.00 41 1009.4
20260505164436 68 175 1.7 7.8 0.00 0.00 0.00 39 1009.4
20260505163934 69 150 2.6 7.8 0.00 0.00 0.00 37 1009.4
20260505163433 69 179 1.7 5.2 0.00 0.00 0.00 37 1009.4
20260505162932 68 167 2.6 7.0 0.00 0.00 0.00 40 1009.4
20260505162427 68 195 3.5 8.7 0.00 0.00 0.00 38 1009.4
20260505161924 68 164 3.5 8.7 0.00 0.00 0.00 38 1009.4
20260505161421 67 141 2.6 7.0 0.00 0.00 0.00 41 1009.4
20260505160918 67 180 2.6 7.0 0.00 0.00 0.00 42 1009.4
20260505160416 66 198 3.5 7.0 0.00 0.00 0.00 43 1008.9
20260505153355 62 193 2.6 6.1 0.00 0.00 0.00 50 1008.9
20260505152852 62 206 2.6 6.1 0.00 0.00 0.00 50 1008.9
20260505152349 61 189 2.6 7.0 0.00 0.00 0.00 52 1008.9
20260505151843 60 166 2.6 7.0 0.00 0.00 0.00 53 1008.9
20260505151340 60 134 3.5 7.8 0.00 0.00 0.00 56 1008.9
20260505150837 59 198 3.5 7.8 0.00 0.00 0.00 58 1008.6
20260505150334 58 140 3.5 5.2 0.00 0.00 0.00 60 1008.6
20260505140253 50 131 0.9 4.3 0.00 0.00 0.00 73 1008.2
20260505130217 50 92 0.0 1.7 0.00 0.00 0.00 70 1007.1
20260505124707 50 110 0.9 3.5 0.00 0.00 0.00 69 1007.1
20260505124204 50 98 0.9 2.6 0.00 0.00 0.00 69 1006.8
20260505123659 50 97 0.9 2.6 0.00 0.00 0.00 69 1006.8
20260505123156 50 97 0.0 2.6 0.00 0.00 0.00 69 1006.5
20260505122653 50 127 0.0 0.0 0.00 0.00 0.00 69 1006.5
20260505122150 50 129 0.0 0.0 0.00 0.00 0.00 68 1006.5
20260505121647 51 69 0.0 0.0 0.00 0.00 0.00 68 1006.5
20260505121143 51 147 0.0 0.0 0.00 0.00 0.00 68 1006.0
20260505120639 51 118 0.0 0.9 0.00 0.00 0.00 68 1006.0
20260505120135 51 147 0.9 1.7 0.00 0.00 0.00 68 1005.7
20260505115630 51 127 0.9 1.7 0.00 0.00 0.00 68 1006.0
20260505115128 51 127 0.9 2.6 0.00 0.00 0.00 67 1005.7
20260505114624 51 123 0.9 2.6 0.00 0.00 0.00 67 1005.7
20260505114121 51 118 0.0 1.7 0.00 0.00 0.00 66 1005.7
20260505113617 52 119 0.0 1.7 0.00 0.00 0.00 66 1005.7
20260505113114 52 119 0.0 1.7 0.00 0.00 0.00 66 1005.7
20260505112610 52 122 0.0 0.9 0.00 0.00 0.00 65 1005.7
20260505112108 52 122 0.0 1.7 0.00 0.00 0.00 65 1005.3
20260505111602 52 122 0.0 1.7 0.00 0.00 0.00 65 1005.3
20260505111058 53 118 0.9 1.7 0.00 0.00 0.00 64 1005.3
20260505110555 53 118 0.0 1.7 0.00 0.00 0.00 64 1005.3
20260505102027 55 119 0.0 2.6 0.00 0.00 0.00 58 1004.6
20260505101526 55 119 0.0 2.6 0.00 0.00 0.00 57 1004.6
20260505101022 56 123 0.0 2.6 0.00 0.00 0.00 57 1004.6
20260505100519 56 166 0.0 0.0 0.00 0.00 0.00 56 1004.2
20260505100016 57 166 0.0 0.0 0.00 0.00 0.00 55 1004.2
20260505095512 57 166 0.0 0.0 0.00 0.00 0.00 55 1004.2
20260505095008 57 166 0.0 0.0 0.00 0.00 0.00 54 1004.2
20260505094505 57 166 0.0 0.9 0.00 0.00 0.00 53 1003.9
20260505094001 57 166 0.0 0.9 0.00 0.00 0.00 53 1003.9
20260505093457 57 166 0.9 2.6 0.00 0.00 0.00 53 1003.9
20260505092955 58 166 0.9 2.6 0.00 0.00 0.00 53 1003.9
20260505092452 58 151 0.9 2.6 0.00 0.00 0.00 52 1003.9
20260505091950 58 342 0.0 2.6 0.00 0.00 0.00 52 1003.4
20260505091447 59 342 0.0 1.7 0.00 0.00 0.00 51 1003.4
20260505090945 59 331 0.0 0.9 0.00 0.00 0.00 51 1003.4
20260505090443 59 318 0.0 2.6 0.00 0.00 0.00 51 1003.4
20260505085940 59 313 0.0 2.6 0.00 0.00 0.00 51 1003.4
20260505085438 59 314 0.9 3.5 0.00 0.00 0.00 50 1003.1
20260505084936 60 327 0.9 3.5 0.00 0.00 0.00 50 1003.1
20260505084434 60 343 0.9 3.5 0.00 0.00 0.00 50 1003.1
20260505083932 60 339 0.9 3.5 0.00 0.00 0.00 50 1003.1
20260505083429 60 307 0.0 0.9 0.00 0.00 0.00 50 1003.1
20260505082925 61 304 0.9 1.7 0.00 0.00 0.00 49 1003.1
20260505082421 61 304 0.9 2.6 0.00 0.00 0.00 48 1003.1
20260505081918 61 314 0.0 2.6 0.00 0.00 0.00 48 1003.1
20260505081415 62 312 0.9 1.7 0.00 0.00 0.00 48 1003.1
20260505080911 62 316 0.9 2.6 0.00 0.00 0.00 48 1003.1
20260505080408 62 338 0.9 2.6 0.00 0.00 0.00 47 1003.1
20260505075903 62 337 0.9 3.5 0.00 0.00 0.00 47 1003.1
20260505075400 62 339 1.7 4.3 0.00 0.00 0.00 47 1003.1
20260505074857 62 339 1.7 4.3 0.00 0.00 0.00 47 1003.1
20260505074354 62 337 1.7 4.3 0.00 0.00 0.00 47 1003.1
20260505073852 62 329 2.6 6.1 0.00 0.00 0.00 47 1003.1
20260505073349 62 330 2.6 6.1 0.00 0.00 0.00 48 1003.1
20260505072846 62 321 1.7 6.1 0.00 0.00 0.00 48 1003.1
20260505072342 62 335 1.7 3.5 0.00 0.00 0.00 48 1003.1
20260505071838 62 323 1.7 3.5 0.00 0.00 0.00 48 1003.1
20260505071335 62 327 0.9 3.5 0.00 0.00 0.00 47 1003.1
20260505070833 62 332 0.9 2.6 0.00 0.00 0.00 48 1003.1
20260505070329 62 306 0.9 2.6 0.00 0.00 0.00 47 1003.1
20260505065825 62 4 0.9 2.6 0.00 0.00 0.00 47 1002.8
20260505065322 62 317 0.0 1.7 0.00 0.00 0.00 47 1002.8
20260505064819 62 317 0.0 1.7 0.00 0.00 0.00 46 1002.8
20260505064316 62 325 0.9 4.3 0.00 0.00 0.00 46 1002.8
20260505063814 62 333 1.7 7.0 0.00 0.00 0.00 45 1002.8
20260505063310 63 346 2.6 7.0 0.00 0.00 0.00 45 1002.8
20260505062806 63 341 1.7 4.3 0.00 0.00 0.00 45 1002.8
20260505062304 63 323 0.9 2.6 0.00 0.00 0.00 44 1002.8
20260505061800 64 341 0.9 1.7 0.00 0.00 0.00 44 1002.8
20260505061259 64 327 0.0 2.6 0.00 0.00 0.00 44 1002.8
20260505060756 64 327 0.9 2.6 0.00 0.00 0.00 43 1002.8
20260505060253 65 258 0.0 1.7 0.00 0.00 0.00 41 1002.8
20260505055748 65 215 0.0 1.7 0.00 0.00 0.00 41 1002.8
20260505055245 66 215 0.9 1.7 0.00 0.00 0.00 40 1002.8
20260505054742 66 215 0.9 1.7 0.00 0.00 0.00 40 1002.8
20260505054239 67 223 0.9 1.7 0.00 0.00 0.00 39 1002.3
20260505053737 67 223 0.9 2.6 0.00 0.00 0.00 38 1002.3
20260505053228 68 343 0.0 2.6 0.00 0.00 0.00 38 1002.3
20260505052726 68 277 0.0 1.7 0.00 0.00 0.00 38 1002.3
20260505052222 68 343 0.9 4.3 0.00 0.00 0.00 37 1002.0
20260505051719 69 318 0.9 3.5 0.00 0.00 0.00 36 1002.0
20260505051217 69 320 1.7 5.2 0.00 0.00 0.00 35 1002.3
20260505050715 69 329 1.7 5.2 0.00 0.00 0.00 35 1002.3
20260505050213 70 323 1.7 4.3 0.00 0.00 0.00 35 1002.3
20260505041643 70 343 3.5 8.7 0.00 0.00 0.00 34 1002.3
20260505041140 70 318 2.6 7.8 0.00 0.00 0.00 33 1002.3
20260505040637 70 333 3.5 7.8 0.00 0.00 0.00 34 1002.3
20260505040134 70 333 2.6 7.0 0.00 0.00 0.00 34 1002.3
20260505035630 70 335 2.6 7.0 0.00 0.00 0.00 34 1002.0
20260505035127 70 337 2.6 7.0 0.00 0.00 0.00 33 1002.0
20260505034623 70 342 1.7 5.2 0.00 0.00 0.00 34 1002.0
20260505034120 70 5 1.7 5.2 0.00 0.00 0.00 34 1002.0
20260505033617 71 359 1.7 5.2 0.00 0.00 0.00 34 1002.0
20260505033116 71 27 1.7 4.3 0.00 0.00 0.00 36 1002.0
20260505032613 72 338 1.7 4.3 0.00 0.00 0.00 35 1002.0
20260505032109 73 356 0.9 4.3 0.00 0.00 0.00 36 1002.0
20260505031607 73 333 0.0 2.6 0.00 0.00 0.00 36 1002.0
20260505031103 74 333 0.0 0.9 0.00 0.00 0.00 35 1001.6
20260505030600 75 333 0.0 0.9 0.00 0.00 0.00 36 1001.6
20260505030055 75 333 0.0 1.7 0.00 0.00 0.00 34 1001.6
20260505025551 76 329 0.9 2.6 0.00 0.00 0.00 33 1001.6
20260505025051 76 326 1.7 5.2 0.00 0.00 0.00 32 1001.6
20260505024547 77 349 1.7 5.2 0.00 0.00 0.00 31 1001.6
20260505024045 77 348 1.7 7.0 0.00 0.00 0.00 31 1001.6
20260505023542 77 325 2.6 11.3 0.00 0.00 0.00 30 1001.6
20260505023039 77 342 3.5 11.3 0.00 0.00 0.00 30 1001.6
20260505022536 77 305 2.6 7.8 0.00 0.00 0.00 30 1001.3
20260505022033 78 338 3.5 7.8 0.00 0.00 0.00 30 1001.3
20260505021529 78 310 4.3 13.0 0.00 0.00 0.00 30 1001.3
20260505021026 78 335 4.3 13.0 0.00 0.00 0.00 30 1001.3
20260505020520 78 25 3.5 13.0 0.00 0.00 0.00 30 1001.3
20260505020018 78 356 3.5 11.3 0.00 0.00 0.00 30 1001.6
20260505015515 79 340 3.5 11.3 0.00 0.00 0.00 30 1001.6
20260505015012 79 342 3.5 8.7 0.00 0.00 0.00 29 1001.6
20260505014509 79 329 2.6 8.7 0.00 0.00 0.00 29 1001.6
20260505014006 79 308 3.5 7.8 0.00 0.00 0.00 29 1001.6
20260505013503 79 314 5.2 14.8 0.00 0.00 0.00 28 1001.6
20260505013000 80 340 5.2 14.8 0.00 0.00 0.00 28 1001.6
20260505012459 80 310 4.3 11.3 0.00 0.00 0.00 27 1001.6
20260505011955 80 306 5.2 12.2 0.00 0.00 0.00 27 1001.6
20260505011451 81 341 6.1 12.2 0.00 0.00 0.00 26 1001.6
20260505010948 81 313 6.1 15.6 0.00 0.00 0.00 26 1001.6
20260505010443 81 352 6.1 15.6 0.00 0.00 0.00 25 1001.6
20260505005940 82 326 5.2 13.0 0.00 0.00 0.00 24 1001.6
20260505005437 81 326 4.3 13.0 0.00 0.00 0.00 25 1001.6
20260505004935 81 318 4.3 11.3 0.00 0.00 0.00 25 1002.0
20260505004431 81 332 5.2 13.9 0.00 0.00 0.00 24 1002.0
20260505003928 81 22 5.2 13.9 0.00 0.00 0.00 24 1002.3
20260505003425 81 323 5.2 12.2 0.00 0.00 0.00 23 1002.0
20260505002921 80 308 6.1 12.2 0.00 0.00 0.00 23 1002.3
20260505002418 80 18 6.1 14.8 0.00 0.00 0.00 23 1002.3
20260505001916 80 33 6.1 14.8 0.00 0.00 0.00 22 1002.3
20260505001413 80 302 5.2 13.0 0.00 0.00 0.00 22 1002.3
20260505000910 80 346 5.2 13.9 0.00 0.00 0.00 22 1002.3
20260505000408 80 354 7.0 13.9 0.00 0.00 0.00 22 1002.3
20260504235904 80 23 7.0 13.9 0.00 0.00 0.00 22 1002.3
20260504235402 80 343 5.2 11.3 0.00 0.00 0.00 22 1002.3
20260504234858 80 295 4.3 12.2 0.00 0.00 0.00 22 1002.3
20260504234355 80 310 4.3 12.2 0.00 0.00 0.00 23 1002.3
20260504233852 80 316 4.3 13.0 0.00 0.00 0.00 23 1002.3
20260504233348 80 339 5.2 13.0 0.00 0.00 0.00 23 1002.3
20260504232844 80 320 4.3 8.7 0.00 0.00 0.00 24 1002.3
20260504232342 80 327 2.6 8.7 0.00 0.00 0.00 26 1002.3
20260504231838 80 304 4.3 12.2 0.00 0.00 0.00 26 1002.8
20260504231335 80 321 4.3 12.2 0.00 0.00 0.00 26 1002.8
20260504230831 80 308 4.3 13.0 0.00 0.00 0.00 26 1002.8
20260504230329 80 290 5.2 13.0 0.00 0.00 0.00 27 1002.8
20260504225828 80 3 4.3 12.2 0.00 0.00 0.00 27 1002.8
20260504225324 80 310 5.2 13.9 0.00 0.00 0.00 28 1002.8
20260504224821 80 6 6.1 13.9 0.00 0.00 0.00 27 1002.8
20260504224318 80 309 5.2 13.0 0.00 0.00 0.00 27 1002.8
20260504223815 79 349 4.3 12.2 0.00 0.00 0.00 28 1002.8
20260504223310 79 339 4.3 12.2 0.00 0.00 0.00 29 1003.1
20260504222807 79 358 3.5 11.3 0.00 0.00 0.00 29 1003.1
20260504222305 79 302 2.6 9.6 0.00 0.00 0.00 30 1003.1
20260504221802 79 333 3.5 10.4 0.00 0.00 0.00 29 1003.1
20260504221259 79 346 2.6 10.4 0.00 0.00 0.00 30 1003.4
20260504220755 79 358 3.5 9.6 0.00 0.00 0.00 30 1003.4
20260504220252 79 319 4.3 9.6 0.00 0.00 0.00 29 1003.4
20260504215750 79 346 3.5 7.8 0.00 0.00 0.00 30 1003.4
20260504215246 79 321 3.5 9.6 0.00 0.00 0.00 31 1003.9
20260504214742 78 328 3.5 9.6 0.00 0.00 0.00 31 1003.9
20260504214239 78 305 2.6 7.8 0.00 0.00 0.00 32 1003.9
20260504213735 78 2 2.6 9.6 0.00 0.00 0.00 31 1003.9
20260504213226 78 1 3.5 9.6 0.00 0.00 0.00 31 1003.9
20260504212723 78 316 2.6 8.7 0.00 0.00 0.00 32 1004.2
20260504212220 78 285 1.7 7.8 0.00 0.00 0.00 34 1004.2
20260504211717 78 294 3.5 10.4 0.00 0.00 0.00 33 1004.2
20260504211213 78 11 2.6 10.4 0.00 0.00 0.00 34 1004.6
20260504210711 78 357 2.6 7.8 0.00 0.00 0.00 33 1004.6
20260504210207 78 313 2.6 9.6 0.00 0.00 0.00 33 1004.6
20260504205704 78 6 3.5 9.6 0.00 0.00 0.00 34 1004.6
20260504205201 77 254 4.3 9.6 0.00 0.00 0.00 35 1004.6
20260504204700 77 342 5.2 9.6 0.00 0.00 0.00 34 1004.6
20260504204159 77 333 4.3 9.6 0.00 0.00 0.00 35 1004.9
20260504203657 77 305 4.3 12.2 0.00 0.00 0.00 37 1004.6
20260504203155 77 10 3.5 12.2 0.00 0.00 0.00 35 1004.9
20260504202654 77 341 2.6 7.8 0.00 0.00 0.00 37 1004.9
20260504202152 77 309 2.6 7.8 0.00 0.00 0.00 35 1004.9
20260504201649 77 300 2.6 9.6 0.00 0.00 0.00 36 1005.3
20260504201146 76 19 3.5 10.4 0.00 0.00 0.00 36 1005.3
20260504200643 76 318 2.6 11.3 0.00 0.00 0.00 36 1005.3
20260504200140 76 304 2.6 11.3 0.00 0.00 0.00 36 1005.3
20260504195636 76 343 2.6 11.3 0.00 0.00 0.00 35 1005.3
20260504195132 76 331 1.7 11.3 0.00 0.00 0.00 34 1005.3
20260504194629 76 333 1.7 7.8 0.00 0.00 0.00 37 1005.3
20260504194125 76 323 0.9 6.1 0.00 0.00 0.00 35 1005.7
20260504193622 76 291 1.7 8.7 0.00 0.00 0.00 41 1005.7
20260504193120 75 134 2.6 8.7 0.00 0.00 0.00 38 1005.7
20260504192618 75 333 2.6 7.0 0.00 0.00 0.00 37 1005.7
20260504192116 75 17 2.6 6.1 0.00 0.00 0.00 36 1005.7
20260504191614 75 318 2.6 6.1 0.00 0.00 0.00 36 1005.7
20260504191110 75 339 3.5 11.3 0.00 0.00 0.00 37 1006.0
20260504190606 74 323 3.5 11.3 0.00 0.00 0.00 35 1006.0